Pulpca — PHMT — position and weather

sailwx.info

Track history (hours):
 
Tides and Currents Weather Stations Pressure Air Temp Water Temp Dewpoint Dewpoint Depression Visibility Wind Speed Wind Dir Waves Ship Positions

Pulpca

Last reported at 2015-Aug-03 20:33 UTC. Time now 2015-Aug-03 21:19 UTC.
Position N 59°54' E 030°14'.

Length 205 m; draft 6.5 m.

Type: Cargo ship. MMSI: 245097000.

Date/timePositionNaut miles runAvg speedWind from/ knotsBaromVisibWave heightAir tempDewpointWater temp
2015-Aug-03 20:33N 59°54' E 030°14'0 0.0
2015-Aug-03 19:30N 59°54' E 030°14'0 0.0
2015-Aug-03 18:33N 59°54' E 030°14'0 0.0
2015-Aug-03 17:33N 59°54' E 030°14'0 0.0
2015-Aug-03 16:33N 59°54' E 030°14'0 0.1
2015-Aug-03 15:34N 59°54' E 030°14'5 5.3
2015-Aug-03 14:33N 59°55' E 030°03'1111.1
2015-Aug-03 13:33N 59°59' E 029°43'9210.2
2015-Aug-03 04:33N 59°59' E 026°39'5112.8
2015-Aug-03 00:34N 59°48' E 025°00'1312.8
2015-Aug-02 23:33N 59°45' E 024°35'50 6.9
2015-Aug-02 16:20N 59°49' E 022°56'32920.4
2015-Aug-02 00:13N 55°47' E 015°57'1421.5
2015-Aug-01 23:33N 55°40' E 015°35'2121.1
2015-Aug-01 22:33N 55°30' E 015°03'2121.1
2015-Aug-01 21:33N 55°18' E 014°32'2121.5
2015-Aug-01 20:33N 55°02' E 014°07'2221.6
2015-Aug-01 19:33N 54°55' E 013°31'2221.9
2015-Aug-01 18:33N 54°47' E 012°56'2020.2
2015-Aug-01 17:33N 54°37' E 012°25'2019.8
2015-Aug-01 16:33N 54°23' E 012°02'2120.9
2015-Aug-01 15:33N 54°13' E 011°30'2220.8
2015-Aug-01 14:30N 54°01' E 010°59'6 0.4
2015-Aug-01 01:33N 54°05' E 011°05'1817.8
2015-Aug-01 00:34N 54°16' E 011°29'1817.8
2015-Jul-31 23:34N 54°24' E 011°56'1615.3
2015-Jul-31 22:32N 54°35' E 012°16'5217.5
2015-Jul-31 19:34N 54°59' E 013°36'1817.9
2015-Jul-31 18:34N 55°05' E 014°06'1818.0
2015-Jul-31 17:34N 55°19' E 014°26'1817.7
2015-Jul-31 16:34N 55°30' E 014°50'1817.8
2015-Jul-31 15:34N 55°40' E 015°16'34417.8
2015-Jul-30 20:12N 59°40' E 022°58'5 0.3
2015-Jul-30 02:33N 59°43' E 023°05'33918.4
2015-Jul-29 08:08N 55°40' E 015°41'1118.9
2015-Jul-29 07:33N 55°36' E 015°24'1919.2
2015-Jul-29 06:33N 55°27' E 014°54'1918.5
2015-Jul-29 05:34N 55°15' E 014°29'1918.5
2015-Jul-29 04:33N 55°02' E 014°06'1918.7
2015-Jul-29 03:33N 54°55' E 013°36'5518.3
2015-Jul-29 00:33N 54°27' E 012°14'1818.0
2015-Jul-28 23:33N 54°19' E 011°46'1919.1
2015-Jul-28 22:33N 54°09' E 011°18'5 0.1
2015-Jul-27 03:27N 54°07' E 011°10'1819.6
2015-Jul-27 02:34N 54°17' E 011°35'1919.4
2015-Jul-27 01:34N 54°26' E 012°04'1917.8
2015-Jul-27 00:31N 54°40' E 012°26'4119.4
2015-Jul-26 22:25N 54°46' E 013°35'1720.2
2015-Jul-26 21:34N 54°41' E 014°04'2019.7
2015-Jul-26 20:33N 54°38' E 014°38'2020.1
2015-Jul-26 19:33N 54°42' E 015°12'10120.2
2015-Jul-26 14:33N 54°56' E 018°05'2019.7
2015-Jul-26 13:34N 54°54' E 018°39'1817.9
2015-Jul-26 12:34N 54°39' E 018°57'1515.1
2015-Jul-26 11:33N 54°32' E 018°35'2 1.6
2015-Jul-26 10:33N 54°32' E 018°32'0 0.0
2015-Jul-26 09:33N 54°32' E 018°32'0 0.0
2015-Jul-26 08:33N 54°32' E 018°32'0 0.0
2015-Jul-26 07:33N 54°32' E 018°32'1 0.8
2015-Jul-26 06:34N 54°32' E 018°33'1211.5
2015-Jul-26 05:33N 54°35' E 018°52'1919.2
2015-Jul-26 04:33N 54°53' E 019°04'2019.4
2015-Jul-26 03:33N 55°12' E 019°14'25919.6
2015-Jul-25 14:18N 59°16' E 021°55'1519.8
2015-Jul-25 13:33N 59°25' E 022°18'2519.9
2015-Jul-25 12:18N 59°39' E 022°59'10 1.2
2015-Jul-25 04:06N 59°49' E 022°57'6 4.2
2015-Jul-25 02:33N 59°44' E 023°04'  
Track history (hours):
 
Tides and Currents Weather Stations Pressure Air Temp Water Temp Dewpoint Dewpoint Depression Visibility Wind Speed Wind Dir Waves Ship Positions

Pulpca

Last reported at 2015-Aug-03 20:33 UTC. Time now 2015-Aug-03 21:19 UTC.
Position N 59°54' E 030°14'.

Length 205 m; draft 6.5 m.

Type: Cargo ship. MMSI: 245097000.

Date/timePositionNaut miles runAvg speedWind from/ knotsBaromVisibWave heightAir tempDewpointWater temp
2015-Aug-03 20:33N 59°54' E 030°14'0 0.0
2015-Aug-03 19:30N 59°54' E 030°14'0 0.0
2015-Aug-03 18:33N 59°54' E 030°14'0 0.0
2015-Aug-03 17:33N 59°54' E 030°14'0 0.0
2015-Aug-03 16:33N 59°54' E 030°14'0 0.1
2015-Aug-03 15:34N 59°54' E 030°14'5 5.3
2015-Aug-03 14:33N 59°55' E 030°03'1111.1
2015-Aug-03 13:33N 59°59' E 029°43'9210.2
2015-Aug-03 04:33N 59°59' E 026°39'5112.8
2015-Aug-03 00:34N 59°48' E 025°00'1312.8
2015-Aug-02 23:33N 59°45' E 024°35'50 6.9
2015-Aug-02 16:20N 59°49' E 022°56'32920.4
2015-Aug-02 00:13N 55°47' E 015°57'1421.5
2015-Aug-01 23:33N 55°40' E 015°35'2121.1
2015-Aug-01 22:33N 55°30' E 015°03'2121.1
2015-Aug-01 21:33N 55°18' E 014°32'2121.5
2015-Aug-01 20:33N 55°02' E 014°07'2221.6
2015-Aug-01 19:33N 54°55' E 013°31'2221.9
2015-Aug-01 18:33N 54°47' E 012°56'2020.2
2015-Aug-01 17:33N 54°37' E 012°25'2019.8
2015-Aug-01 16:33N 54°23' E 012°02'2120.9
2015-Aug-01 15:33N 54°13' E 011°30'2220.8
2015-Aug-01 14:30N 54°01' E 010°59'6 0.4
2015-Aug-01 01:33N 54°05' E 011°05'1817.8
2015-Aug-01 00:34N 54°16' E 011°29'1817.8
2015-Jul-31 23:34N 54°24' E 011°56'1615.3
2015-Jul-31 22:32N 54°35' E 012°16'5217.5
2015-Jul-31 19:34N 54°59' E 013°36'1817.9
2015-Jul-31 18:34N 55°05' E 014°06'1818.0
2015-Jul-31 17:34N 55°19' E 014°26'1817.7
2015-Jul-31 16:34N 55°30' E 014°50'1817.8
2015-Jul-31 15:34N 55°40' E 015°16'34417.8
2015-Jul-30 20:12N 59°40' E 022°58'5 0.3
2015-Jul-30 02:33N 59°43' E 023°05'33918.4
2015-Jul-29 08:08N 55°40' E 015°41'1118.9
2015-Jul-29 07:33N 55°36' E 015°24'1919.2
2015-Jul-29 06:33N 55°27' E 014°54'1918.5
2015-Jul-29 05:34N 55°15' E 014°29'1918.5
2015-Jul-29 04:33N 55°02' E 014°06'1918.7
2015-Jul-29 03:33N 54°55' E 013°36'5518.3
2015-Jul-29 00:33N 54°27' E 012°14'1818.0
2015-Jul-28 23:33N 54°19' E 011°46'1919.1
2015-Jul-28 22:33N 54°09' E 011°18'5 0.1
2015-Jul-27 03:27N 54°07' E 011°10'1819.6
2015-Jul-27 02:34N 54°17' E 011°35'1919.4
2015-Jul-27 01:34N 54°26' E 012°04'1917.8
2015-Jul-27 00:31N 54°40' E 012°26'4119.4
2015-Jul-26 22:25N 54°46' E 013°35'1720.2
2015-Jul-26 21:34N 54°41' E 014°04'2019.7
2015-Jul-26 20:33N 54°38' E 014°38'2020.1
2015-Jul-26 19:33N 54°42' E 015°12'10120.2
2015-Jul-26 14:33N 54°56' E 018°05'2019.7
2015-Jul-26 13:34N 54°54' E 018°39'1817.9
2015-Jul-26 12:34N 54°39' E 018°57'1515.1
2015-Jul-26 11:33N 54°32' E 018°35'2 1.6
2015-Jul-26 10:33N 54°32' E 018°32'0 0.0
2015-Jul-26 09:33N 54°32' E 018°32'0 0.0
2015-Jul-26 08:33N 54°32' E 018°32'0 0.0
2015-Jul-26 07:33N 54°32' E 018°32'1 0.8
2015-Jul-26 06:34N 54°32' E 018°33'1211.5
2015-Jul-26 05:33N 54°35' E 018°52'1919.2
2015-Jul-26 04:33N 54°53' E 019°04'2019.4
2015-Jul-26 03:33N 55°12' E 019°14'25919.6
2015-Jul-25 14:18N 59°16' E 021°55'1519.8
2015-Jul-25 13:33N 59°25' E 022°18'2519.9
2015-Jul-25 12:18N 59°39' E 022°59'10 1.2
2015-Jul-25 04:06N 59°49' E 022°57'6 4.2
2015-Jul-25 02:33N 59°44' E 023°04'  

Dump ship's entire track history